sensor_id;sensor_type;location;lat;lon;timestamp;P1;durP1;ratioP1;P2;durP2;ratioP2
55314;SDS011;41619;42.816;23.226;2022-11-02T00:01:28;47.90;;;18.30;;
55314;SDS011;41619;42.816;23.226;2022-11-02T00:04:01;44.17;;;20.17;;
55314;SDS011;41619;42.816;23.226;2022-11-02T00:06:26;42.95;;;20.05;;
55314;SDS011;41619;42.816;23.226;2022-11-02T00:08:52;49.05;;;17.67;;
55314;SDS011;41619;42.816;23.226;2022-11-02T00:11:17;47.80;;;18.63;;
55314;SDS011;41619;42.816;23.226;2022-11-02T00:13:42;42.42;;;17.00;;
55314;SDS011;41619;42.816;23.226;2022-11-02T00:16:09;38.08;;;18.02;;
55314;SDS011;41619;42.816;23.226;2022-11-02T00:18:36;64.55;;;19.38;;
55314;SDS011;41619;42.816;23.226;2022-11-02T00:21:03;43.95;;;22.20;;
55314;SDS011;41619;42.816;23.226;2022-11-02T00:23:28;50.10;;;22.17;;
55314;SDS011;41619;42.816;23.226;2022-11-02T00:25:55;42.80;;;21.42;;
55314;SDS011;41619;42.816;23.226;2022-11-02T00:28:22;59.38;;;25.25;;
55314;SDS011;41619;42.816;23.226;2022-11-02T00:30:48;54.58;;;24.23;;
55314;SDS011;41619;42.816;23.226;2022-11-02T00:33:13;56.33;;;23.98;;
55314;SDS011;41619;42.816;23.226;2022-11-02T00:35:38;57.22;;;23.10;;
55314;SDS011;41619;42.816;23.226;2022-11-02T00:38:05;48.33;;;21.40;;
55314;SDS011;41619;42.816;23.226;2022-11-02T00:40:30;44.58;;;19.60;;
55314;SDS011;41619;42.816;23.226;2022-11-02T00:42:56;42.13;;;18.38;;
55314;SDS011;41619;42.816;23.226;2022-11-02T00:45:21;44.08;;;19.42;;
55314;SDS011;41619;42.816;23.226;2022-11-02T00:47:47;52.83;;;20.95;;
55314;SDS011;41619;42.816;23.226;2022-11-02T00:50:13;52.13;;;20.48;;
55314;SDS011;41619;42.816;23.226;2022-11-02T00:52:38;40.75;;;19.00;;
55314;SDS011;41619;42.816;23.226;2022-11-02T00:55:06;41.05;;;16.25;;
55314;SDS011;41619;42.816;23.226;2022-11-02T00:57:33;43.75;;;16.50;;
55314;SDS011;41619;42.816;23.226;2022-11-02T00:59:58;35.28;;;15.80;;
55314;SDS011;41619;42.816;23.226;2022-11-02T01:02:24;40.83;;;15.55;;
55314;SDS011;41619;42.816;23.226;2022-11-02T01:04:49;38.83;;;15.25;;
55314;SDS011;41619;42.816;23.226;2022-11-02T01:07:15;25.83;;;15.20;;
55314;SDS011;41619;42.816;23.226;2022-11-02T01:09:40;37.15;;;15.32;;
55314;SDS011;41619;42.816;23.226;2022-11-02T01:12:06;33.63;;;15.80;;
55314;SDS011;41619;42.816;23.226;2022-11-02T01:14:31;38.70;;;15.82;;
55314;SDS011;41619;42.816;23.226;2022-11-02T01:16:57;39.08;;;15.98;;
55314;SDS011;41619;42.816;23.226;2022-11-02T01:19:23;37.53;;;16.92;;
55314;SDS011;41619;42.816;23.226;2022-11-02T01:21:48;28.92;;;14.50;;
55314;SDS011;41619;42.816;23.226;2022-11-02T01:24:14;35.92;;;14.70;;
55314;SDS011;41619;42.816;23.226;2022-11-02T01:26:39;42.80;;;15.52;;
55314;SDS011;41619;42.816;23.226;2022-11-02T01:29:05;36.97;;;15.57;;
55314;SDS011;41619;42.816;23.226;2022-11-02T01:31:30;37.47;;;15.40;;
55314;SDS011;41619;42.816;23.226;2022-11-02T01:33:55;43.90;;;14.93;;
55314;SDS011;41619;42.816;23.226;2022-11-02T01:36:21;36.40;;;15.35;;
55314;SDS011;41619;42.816;23.226;2022-11-02T01:38:47;34.75;;;14.90;;
55314;SDS011;41619;42.816;23.226;2022-11-02T01:41:13;37.58;;;15.48;;
55314;SDS011;41619;42.816;23.226;2022-11-02T01:43:40;35.30;;;14.23;;
55314;SDS011;41619;42.816;23.226;2022-11-02T01:48:46;40.08;;;15.85;;
55314;SDS011;41619;42.816;23.226;2022-11-02T01:51:25;37.65;;;13.68;;
55314;SDS011;41619;42.816;23.226;2022-11-02T01:54:11;32.80;;;14.45;;
55314;SDS011;41619;42.816;23.226;2022-11-02T01:56:43;34.97;;;14.45;;
55314;SDS011;41619;42.816;23.226;2022-11-02T01:59:14;36.40;;;14.90;;
55314;SDS011;41619;42.816;23.226;2022-11-02T02:01:43;33.88;;;14.68;;
55314;SDS011;41619;42.816;23.226;2022-11-02T02:04:09;28.42;;;13.40;;
55314;SDS011;41619;42.816;23.226;2022-11-02T02:06:36;36.00;;;14.18;;
55314;SDS011;41619;42.816;23.226;2022-11-02T02:09:04;32.85;;;14.30;;
55314;SDS011;41619;42.816;23.226;2022-11-02T02:13:59;33.95;;;14.98;;
55314;SDS011;41619;42.816;23.226;2022-11-02T02:16:45;32.47;;;14.73;;
55314;SDS011;41619;42.816;23.226;2022-11-02T02:19:26;31.30;;;13.75;;
55314;SDS011;41619;42.816;23.226;2022-11-02T02:22:02;37.03;;;13.85;;
55314;SDS011;41619;42.816;23.226;2022-11-02T02:30:08;38.95;;;15.13;;
55314;SDS011;41619;42.816;23.226;2022-11-02T02:32:38;35.95;;;15.23;;
55314;SDS011;41619;42.816;23.226;2022-11-02T02:35:23;37.38;;;15.52;;
55314;SDS011;41619;42.816;23.226;2022-11-02T02:37:54;41.10;;;15.90;;
55314;SDS011;41619;42.816;23.226;2022-11-02T02:48:05;27.33;;;15.25;;
55314;SDS011;41619;42.816;23.226;2022-11-02T02:50:44;42.47;;;14.68;;
55314;SDS011;41619;42.816;23.226;2022-11-02T02:53:13;36.75;;;14.98;;
55314;SDS011;41619;42.816;23.226;2022-11-02T02:55:42;38.13;;;15.25;;
55314;SDS011;41619;42.816;23.226;2022-11-02T02:58:21;33.83;;;14.35;;
55314;SDS011;41619;42.816;23.226;2022-11-02T03:00:49;31.52;;;14.38;;
55314;SDS011;41619;42.816;23.226;2022-11-02T03:03:18;28.02;;;13.73;;
55314;SDS011;41619;42.816;23.226;2022-11-02T03:08:31;26.75;;;14.23;;
55314;SDS011;41619;42.816;23.226;2022-11-02T03:16:10;37.25;;;15.48;;
55314;SDS011;41619;42.816;23.226;2022-11-02T03:18:47;37.38;;;15.48;;
55314;SDS011;41619;42.816;23.226;2022-11-02T03:21:35;30.75;;;14.60;;
55314;SDS011;41619;42.816;23.226;2022-11-02T03:26:59;28.73;;;13.15;;
55314;SDS011;41619;42.816;23.226;2022-11-02T03:29:38;35.03;;;14.95;;
55314;SDS011;41619;42.816;23.226;2022-11-02T03:32:14;34.80;;;14.63;;
55314;SDS011;41619;42.816;23.226;2022-11-02T03:35:16;33.08;;;17.02;;
55314;SDS011;41619;42.816;23.226;2022-11-02T03:40:51;32.55;;;15.85;;
55314;SDS011;41619;42.816;23.226;2022-11-02T03:43:19;38.13;;;15.15;;
55314;SDS011;41619;42.816;23.226;2022-11-02T03:45:53;35.95;;;14.40;;
55314;SDS011;41619;42.816;23.226;2022-11-02T03:48:20;35.15;;;15.05;;
55314;SDS011;41619;42.816;23.226;2022-11-02T03:50:49;31.67;;;14.48;;
55314;SDS011;41619;42.816;23.226;2022-11-02T03:53:20;35.10;;;15.05;;
55314;SDS011;41619;42.816;23.226;2022-11-02T03:55:53;27.35;;;14.00;;
55314;SDS011;41619;42.816;23.226;2022-11-02T03:58:26;31.35;;;13.80;;
55314;SDS011;41619;42.816;23.226;2022-11-02T04:00:53;26.88;;;13.57;;
55314;SDS011;41619;42.816;23.226;2022-11-02T04:03:22;35.97;;;15.35;;
55314;SDS011;41619;42.816;23.226;2022-11-02T04:05:48;35.13;;;15.10;;
55314;SDS011;41619;42.816;23.226;2022-11-02T04:08:16;27.70;;;14.55;;
55314;SDS011;41619;42.816;23.226;2022-11-02T04:10:50;32.30;;;14.52;;
55314;SDS011;41619;42.816;23.226;2022-11-02T04:13:35;30.88;;;13.85;;
55314;SDS011;41619;42.816;23.226;2022-11-02T04:16:19;30.95;;;13.50;;
55314;SDS011;41619;42.816;23.226;2022-11-02T04:18:45;30.77;;;15.38;;
55314;SDS011;41619;42.816;23.226;2022-11-02T04:21:29;29.95;;;16.23;;
55314;SDS011;41619;42.816;23.226;2022-11-02T04:23:55;32.72;;;19.13;;
55314;SDS011;41619;42.816;23.226;2022-11-02T04:26:39;52.45;;;29.92;;
55314;SDS011;41619;42.816;23.226;2022-11-02T04:29:04;51.78;;;29.42;;
55314;SDS011;41619;42.816;23.226;2022-11-02T04:31:30;41.40;;;21.48;;
55314;SDS011;41619;42.816;23.226;2022-11-02T04:33:55;42.53;;;18.92;;
55314;SDS011;41619;42.816;23.226;2022-11-02T04:36:23;35.42;;;16.95;;
55314;SDS011;41619;42.816;23.226;2022-11-02T04:38:50;37.80;;;15.95;;
55314;SDS011;41619;42.816;23.226;2022-11-02T04:41:16;35.80;;;14.50;;
55314;SDS011;41619;42.816;23.226;2022-11-02T04:44:02;37.00;;;14.52;;
55314;SDS011;41619;42.816;23.226;2022-11-02T04:46:28;37.10;;;15.23;;
55314;SDS011;41619;42.816;23.226;2022-11-02T04:48:55;38.50;;;15.38;;
55314;SDS011;41619;42.816;23.226;2022-11-02T04:51:21;40.80;;;18.58;;
55314;SDS011;41619;42.816;23.226;2022-11-02T04:53:48;35.13;;;20.35;;
55314;SDS011;41619;42.816;23.226;2022-11-02T04:56:14;45.25;;;18.13;;
55314;SDS011;41619;42.816;23.226;2022-11-02T04:58:40;29.98;;;17.48;;
55314;SDS011;41619;42.816;23.226;2022-11-02T05:01:06;40.78;;;16.83;;
55314;SDS011;41619;42.816;23.226;2022-11-02T05:03:33;33.90;;;14.88;;
55314;SDS011;41619;42.816;23.226;2022-11-02T05:06:00;44.88;;;17.70;;
55314;SDS011;41619;42.816;23.226;2022-11-02T05:08:25;49.17;;;16.13;;
55314;SDS011;41619;42.816;23.226;2022-11-02T05:10:54;39.28;;;14.18;;
55314;SDS011;41619;42.816;23.226;2022-11-02T05:13:21;35.85;;;13.73;;
55314;SDS011;41619;42.816;23.226;2022-11-02T05:15:48;42.22;;;14.23;;
55314;SDS011;41619;42.816;23.226;2022-11-02T05:18:13;34.67;;;13.80;;
55314;SDS011;41619;42.816;23.226;2022-11-02T05:20:39;31.58;;;15.55;;
55314;SDS011;41619;42.816;23.226;2022-11-02T05:23:04;31.00;;;15.30;;
55314;SDS011;41619;42.816;23.226;2022-11-02T05:25:30;36.33;;;18.63;;
55314;SDS011;41619;42.816;23.226;2022-11-02T05:27:56;34.47;;;16.70;;
55314;SDS011;41619;42.816;23.226;2022-11-02T05:30:22;29.65;;;16.52;;
55314;SDS011;41619;42.816;23.226;2022-11-02T05:32:47;38.85;;;17.23;;
55314;SDS011;41619;42.816;23.226;2022-11-02T05:35:13;41.92;;;15.52;;
55314;SDS011;41619;42.816;23.226;2022-11-02T05:37:38;38.13;;;16.83;;
55314;SDS011;41619;42.816;23.226;2022-11-02T05:40:04;53.88;;;17.40;;
55314;SDS011;41619;42.816;23.226;2022-11-02T05:42:30;34.00;;;15.57;;
55314;SDS011;41619;42.816;23.226;2022-11-02T05:44:56;38.65;;;15.18;;
55314;SDS011;41619;42.816;23.226;2022-11-02T05:47:21;41.72;;;17.65;;
55314;SDS011;41619;42.816;23.226;2022-11-02T05:49:47;56.38;;;18.48;;
55314;SDS011;41619;42.816;23.226;2022-11-02T05:52:12;35.95;;;15.45;;
55314;SDS011;41619;42.816;23.226;2022-11-02T05:54:38;38.45;;;16.40;;
55314;SDS011;41619;42.816;23.226;2022-11-02T05:57:03;32.42;;;16.15;;
55314;SDS011;41619;42.816;23.226;2022-11-02T05:59:28;37.05;;;16.13;;
55314;SDS011;41619;42.816;23.226;2022-11-02T06:01:54;39.95;;;15.50;;
55314;SDS011;41619;42.816;23.226;2022-11-02T06:04:19;40.78;;;14.73;;
55314;SDS011;41619;42.816;23.226;2022-11-02T06:06:44;49.80;;;14.40;;
55314;SDS011;41619;42.816;23.226;2022-11-02T06:09:10;37.17;;;14.23;;
55314;SDS011;41619;42.816;23.226;2022-11-02T06:11:35;54.88;;;15.77;;
55314;SDS011;41619;42.816;23.226;2022-11-02T06:14:01;37.67;;;17.23;;
55314;SDS011;41619;42.816;23.226;2022-11-02T06:16:27;37.83;;;15.63;;
55314;SDS011;41619;42.816;23.226;2022-11-02T06:18:53;41.45;;;16.23;;
55314;SDS011;41619;42.816;23.226;2022-11-02T06:21:18;36.28;;;16.40;;
55314;SDS011;41619;42.816;23.226;2022-11-02T06:23:45;56.72;;;21.23;;
55314;SDS011;41619;42.816;23.226;2022-11-02T06:26:11;48.50;;;17.90;;
55314;SDS011;41619;42.816;23.226;2022-11-02T06:28:37;45.63;;;17.52;;
55314;SDS011;41619;42.816;23.226;2022-11-02T06:31:02;49.67;;;18.30;;
55314;SDS011;41619;42.816;23.226;2022-11-02T06:33:28;71.25;;;27.30;;
55314;SDS011;41619;42.816;23.226;2022-11-02T06:35:54;79.55;;;25.90;;
55314;SDS011;41619;42.816;23.226;2022-11-02T06:38:19;78.28;;;25.58;;
55314;SDS011;41619;42.816;23.226;2022-11-02T06:40:52;63.50;;;22.25;;
55314;SDS011;41619;42.816;23.226;2022-11-02T06:43:21;62.38;;;20.27;;
55314;SDS011;41619;42.816;23.226;2022-11-02T06:45:47;42.75;;;17.23;;
55314;SDS011;41619;42.816;23.226;2022-11-02T06:48:12;49.85;;;18.42;;
55314;SDS011;41619;42.816;23.226;2022-11-02T06:50:38;48.42;;;15.80;;
55314;SDS011;41619;42.816;23.226;2022-11-02T06:53:03;51.80;;;16.95;;
55314;SDS011;41619;42.816;23.226;2022-11-02T06:55:29;75.45;;;18.25;;
55314;SDS011;41619;42.816;23.226;2022-11-02T06:57:54;56.55;;;18.88;;
55314;SDS011;41619;42.816;23.226;2022-11-02T07:00:19;43.05;;;16.42;;
55314;SDS011;41619;42.816;23.226;2022-11-02T07:02:45;43.08;;;15.88;;
55314;SDS011;41619;42.816;23.226;2022-11-02T07:05:22;54.90;;;16.30;;
55314;SDS011;41619;42.816;23.226;2022-11-02T07:07:47;30.25;;;13.45;;
55314;SDS011;41619;42.816;23.226;2022-11-02T07:10:13;43.78;;;17.92;;
55314;SDS011;41619;42.816;23.226;2022-11-02T07:12:39;30.23;;;12.63;;
55314;SDS011;41619;42.816;23.226;2022-11-02T07:15:04;31.73;;;14.43;;
55314;SDS011;41619;42.816;23.226;2022-11-02T07:17:30;27.25;;;13.48;;
55314;SDS011;41619;42.816;23.226;2022-11-02T07:19:55;36.67;;;12.90;;
55314;SDS011;41619;42.816;23.226;2022-11-02T07:22:21;54.13;;;13.57;;
55314;SDS011;41619;42.816;23.226;2022-11-02T07:24:46;40.30;;;12.07;;
55314;SDS011;41619;42.816;23.226;2022-11-02T07:27:12;37.47;;;12.50;;
55314;SDS011;41619;42.816;23.226;2022-11-02T07:29:38;31.42;;;12.65;;
55314;SDS011;41619;42.816;23.226;2022-11-02T07:32:03;40.05;;;13.93;;
55314;SDS011;41619;42.816;23.226;2022-11-02T07:34:31;29.00;;;13.10;;
55314;SDS011;41619;42.816;23.226;2022-11-02T07:36:56;40.30;;;13.70;;
55314;SDS011;41619;42.816;23.226;2022-11-02T07:39:22;50.80;;;15.32;;
55314;SDS011;41619;42.816;23.226;2022-11-02T07:41:48;35.03;;;14.13;;
55314;SDS011;41619;42.816;23.226;2022-11-02T07:44:13;51.42;;;12.98;;
55314;SDS011;41619;42.816;23.226;2022-11-02T07:46:39;27.02;;;11.63;;
55314;SDS011;41619;42.816;23.226;2022-11-02T07:49:05;35.53;;;12.10;;
55314;SDS011;41619;42.816;23.226;2022-11-02T07:51:30;38.33;;;14.35;;
55314;SDS011;41619;42.816;23.226;2022-11-02T07:53:55;35.20;;;12.52;;
55314;SDS011;41619;42.816;23.226;2022-11-02T07:56:21;35.95;;;11.77;;
55314;SDS011;41619;42.816;23.226;2022-11-02T07:58:46;39.33;;;17.00;;
55314;SDS011;41619;42.816;23.226;2022-11-02T08:01:11;41.58;;;11.60;;
55314;SDS011;41619;42.816;23.226;2022-11-02T08:03:37;24.45;;;11.02;;
55314;SDS011;41619;42.816;23.226;2022-11-02T08:06:02;21.63;;;10.50;;
55314;SDS011;41619;42.816;23.226;2022-11-02T08:08:28;30.15;;;10.35;;
55314;SDS011;41619;42.816;23.226;2022-11-02T08:10:53;24.48;;;11.68;;
55314;SDS011;41619;42.816;23.226;2022-11-02T08:13:20;33.08;;;11.10;;
55314;SDS011;41619;42.816;23.226;2022-11-02T08:18:14;49.72;;;11.65;;
55314;SDS011;41619;42.816;23.226;2022-11-02T08:20:41;184.90;;;14.98;;
55314;SDS011;41619;42.816;23.226;2022-11-02T08:23:07;20.23;;;9.88;;
55314;SDS011;41619;42.816;23.226;2022-11-02T08:25:35;24.10;;;11.20;;
55314;SDS011;41619;42.816;23.226;2022-11-02T08:28:02;36.92;;;10.95;;
55314;SDS011;41619;42.816;23.226;2022-11-02T08:30:29;38.60;;;10.82;;
55314;SDS011;41619;42.816;23.226;2022-11-02T08:33:01;35.72;;;12.48;;
55314;SDS011;41619;42.816;23.226;2022-11-02T08:35:28;34.47;;;11.30;;
55314;SDS011;41619;42.816;23.226;2022-11-02T08:37:54;36.95;;;11.35;;
55314;SDS011;41619;42.816;23.226;2022-11-02T08:40:20;35.03;;;11.38;;
55314;SDS011;41619;42.816;23.226;2022-11-02T08:42:45;48.95;;;11.45;;
55314;SDS011;41619;42.816;23.226;2022-11-02T08:45:11;23.83;;;10.95;;
55314;SDS011;41619;42.816;23.226;2022-11-02T08:47:39;41.72;;;11.77;;
55314;SDS011;41619;42.816;23.226;2022-11-02T08:50:05;32.50;;;11.95;;
55314;SDS011;41619;42.816;23.226;2022-11-02T08:52:35;31.27;;;11.70;;
55314;SDS011;41619;42.816;23.226;2022-11-02T08:55:02;26.95;;;10.90;;
55314;SDS011;41619;42.816;23.226;2022-11-02T08:57:28;29.02;;;11.88;;
55314;SDS011;41619;42.816;23.226;2022-11-02T08:59:53;31.65;;;11.68;;
55314;SDS011;41619;42.816;23.226;2022-11-02T09:02:19;42.15;;;12.48;;
55314;SDS011;41619;42.816;23.226;2022-11-02T09:04:44;37.05;;;11.88;;
55314;SDS011;41619;42.816;23.226;2022-11-02T09:07:09;30.23;;;10.55;;
55314;SDS011;41619;42.816;23.226;2022-11-02T09:09:35;40.22;;;11.70;;
55314;SDS011;41619;42.816;23.226;2022-11-02T09:12:00;38.05;;;11.05;;
55314;SDS011;41619;42.816;23.226;2022-11-02T09:14:26;30.30;;;11.95;;
55314;SDS011;41619;42.816;23.226;2022-11-02T09:16:51;29.23;;;11.23;;
55314;SDS011;41619;42.816;23.226;2022-11-02T09:19:16;32.13;;;11.68;;
55314;SDS011;41619;42.816;23.226;2022-11-02T09:21:42;44.17;;;12.70;;
55314;SDS011;41619;42.816;23.226;2022-11-02T09:24:08;31.40;;;12.30;;
55314;SDS011;41619;42.816;23.226;2022-11-02T09:26:33;40.42;;;12.88;;
55314;SDS011;41619;42.816;23.226;2022-11-02T09:28:59;28.73;;;12.45;;
55314;SDS011;41619;42.816;23.226;2022-11-02T09:31:24;35.63;;;10.90;;
55314;SDS011;41619;42.816;23.226;2022-11-02T09:33:49;27.20;;;11.00;;
55314;SDS011;41619;42.816;23.226;2022-11-02T09:36:15;30.20;;;11.00;;
55314;SDS011;41619;42.816;23.226;2022-11-02T09:38:40;37.60;;;10.93;;
55314;SDS011;41619;42.816;23.226;2022-11-02T09:41:13;34.92;;;10.55;;
55314;SDS011;41619;42.816;23.226;2022-11-02T09:43:43;32.67;;;10.48;;
55314;SDS011;41619;42.816;23.226;2022-11-02T09:46:27;22.20;;;9.23;;
55314;SDS011;41619;42.816;23.226;2022-11-02T09:48:57;29.20;;;12.40;;
55314;SDS011;41619;42.816;23.226;2022-11-02T09:51:33;24.95;;;9.93;;
55314;SDS011;41619;42.816;23.226;2022-11-02T09:54:05;44.85;;;13.32;;
55314;SDS011;41619;42.816;23.226;2022-11-02T09:56:44;33.03;;;10.80;;
55314;SDS011;41619;42.816;23.226;2022-11-02T10:07:19;26.13;;;10.60;;
55314;SDS011;41619;42.816;23.226;2022-11-02T10:12:48;27.98;;;8.40;;
55314;SDS011;41619;42.816;23.226;2022-11-02T10:15:28;24.15;;;8.70;;
55314;SDS011;41619;42.816;23.226;2022-11-02T10:18:00;26.52;;;8.98;;
55314;SDS011;41619;42.816;23.226;2022-11-02T10:23:06;22.75;;;9.02;;
55314;SDS011;41619;42.816;23.226;2022-11-02T10:25:33;25.58;;;8.80;;
55314;SDS011;41619;42.816;23.226;2022-11-02T10:28:02;34.97;;;9.02;;
55314;SDS011;41619;42.816;23.226;2022-11-02T10:30:34;37.83;;;9.55;;
55314;SDS011;41619;42.816;23.226;2022-11-02T10:33:00;25.15;;;8.52;;
55314;SDS011;41619;42.816;23.226;2022-11-02T10:35:33;26.83;;;7.32;;
55314;SDS011;41619;42.816;23.226;2022-11-02T10:46:14;39.95;;;8.68;;
55314;SDS011;41619;42.816;23.226;2022-11-02T10:51:15;35.08;;;8.75;;
55314;SDS011;41619;42.816;23.226;2022-11-02T10:53:42;28.13;;;8.70;;
55314;SDS011;41619;42.816;23.226;2022-11-02T10:56:11;39.53;;;8.45;;
55314;SDS011;41619;42.816;23.226;2022-11-02T11:01:18;22.15;;;6.93;;
55314;SDS011;41619;42.816;23.226;2022-11-02T11:04:03;27.98;;;6.88;;
55314;SDS011;41619;42.816;23.226;2022-11-02T11:06:44;35.47;;;7.30;;
55314;SDS011;41619;42.816;23.226;2022-11-02T11:09:20;31.73;;;7.25;;
55314;SDS011;41619;42.816;23.226;2022-11-02T11:14:31;18.85;;;5.70;;
55314;SDS011;41619;42.816;23.226;2022-11-02T11:17:15;23.30;;;5.90;;
55314;SDS011;41619;42.816;23.226;2022-11-02T11:19:53;23.13;;;4.45;;
55314;SDS011;41619;42.816;23.226;2022-11-02T11:22:40;18.73;;;4.40;;
55314;SDS011;41619;42.816;23.226;2022-11-02T11:27:46;25.17;;;5.28;;
55314;SDS011;41619;42.816;23.226;2022-11-02T11:30:30;22.83;;;5.00;;
55314;SDS011;41619;42.816;23.226;2022-11-02T11:33:00;29.08;;;4.65;;
55314;SDS011;41619;42.816;23.226;2022-11-02T11:35:30;28.92;;;4.00;;
55314;SDS011;41619;42.816;23.226;2022-11-02T11:38:06;20.25;;;4.43;;
55314;SDS011;41619;42.816;23.226;2022-11-02T11:40:42;19.60;;;3.83;;
55314;SDS011;41619;42.816;23.226;2022-11-02T11:43:11;15.90;;;3.60;;
55314;SDS011;41619;42.816;23.226;2022-11-02T11:45:39;28.95;;;4.97;;
55314;SDS011;41619;42.816;23.226;2022-11-02T11:56:59;11.75;;;3.40;;
55314;SDS011;41619;42.816;23.226;2022-11-02T11:59:55;16.95;;;3.85;;
55314;SDS011;41619;42.816;23.226;2022-11-02T12:02:30;29.48;;;4.20;;
55314;SDS011;41619;42.816;23.226;2022-11-02T12:05:18;19.98;;;3.65;;
55314;SDS011;41619;42.816;23.226;2022-11-02T13:27:41;23.05;;;5.90;;
55314;SDS011;41619;42.816;23.226;2022-11-02T13:30:14;24.40;;;5.80;;
55314;SDS011;41619;42.816;23.226;2022-11-02T13:36:07;22.55;;;6.63;;
55314;SDS011;41619;42.816;23.226;2022-11-02T13:38:34;19.13;;;5.90;;
55314;SDS011;41619;42.816;23.226;2022-11-02T13:44:08;19.83;;;4.70;;
55314;SDS011;41619;42.816;23.226;2022-11-02T13:52:10;21.13;;;6.15;;
55314;SDS011;41619;42.816;23.226;2022-11-02T14:00:02;26.70;;;5.57;;
55314;SDS011;41619;42.816;23.226;2022-11-02T14:02:32;20.77;;;5.35;;
55314;SDS011;41619;42.816;23.226;2022-11-02T14:05:01;32.45;;;5.95;;
55314;SDS011;41619;42.816;23.226;2022-11-02T14:07:48;21.02;;;6.28;;
55314;SDS011;41619;42.816;23.226;2022-11-02T14:10:15;22.83;;;5.80;;
55314;SDS011;41619;42.816;23.226;2022-11-02T14:12:51;18.90;;;4.88;;
55314;SDS011;41619;42.816;23.226;2022-11-02T14:39:05;26.15;;;8.88;;
55314;SDS011;41619;42.816;23.226;2022-11-02T14:49:33;16.45;;;6.07;;
55314;SDS011;41619;42.816;23.226;2022-11-02T14:54:45;24.80;;;7.03;;
55314;SDS011;41619;42.816;23.226;2022-11-02T14:57:27;22.38;;;7.22;;
55314;SDS011;41619;42.816;23.226;2022-11-02T15:00:21;52.17;;;8.15;;
55314;SDS011;41619;42.816;23.226;2022-11-02T15:02:48;36.58;;;7.40;;
55314;SDS011;41619;42.816;23.226;2022-11-02T15:05:21;29.15;;;7.63;;
55314;SDS011;41619;42.816;23.226;2022-11-02T15:08:33;24.13;;;6.15;;
55314;SDS011;41619;42.816;23.226;2022-11-02T15:10:40;63.00;;;8.32;;
55314;SDS011;41619;42.816;23.226;2022-11-02T15:15:43;31.27;;;7.75;;
55314;SDS011;41619;42.816;23.226;2022-11-02T15:26:46;50.00;;;15.27;;
55314;SDS011;41619;42.816;23.226;2022-11-02T15:29:35;47.72;;;17.48;;
55314;SDS011;41619;42.816;23.226;2022-11-02T15:32:02;40.08;;;15.23;;
55314;SDS011;41619;42.816;23.226;2022-11-02T15:37:04;57.13;;;20.17;;
55314;SDS011;41619;42.816;23.226;2022-11-02T15:39:31;59.33;;;23.80;;
55314;SDS011;41619;42.816;23.226;2022-11-02T15:42:01;190.00;;;70.72;;
55314;SDS011;41619;42.816;23.226;2022-11-02T15:47:31;103.72;;;43.00;;
55314;SDS011;41619;42.816;23.226;2022-11-02T15:58:27;92.85;;;38.60;;
55314;SDS011;41619;42.816;23.226;2022-11-02T16:03:46;61.88;;;18.48;;
55314;SDS011;41619;42.816;23.226;2022-11-02T16:06:22;68.20;;;16.95;;
55314;SDS011;41619;42.816;23.226;2022-11-02T16:08:56;55.83;;;14.02;;
55314;SDS011;41619;42.816;23.226;2022-11-02T16:11:24;57.60;;;15.57;;
55314;SDS011;41619;42.816;23.226;2022-11-02T16:13:49;39.88;;;13.23;;
55314;SDS011;41619;42.816;23.226;2022-11-02T16:16:18;37.58;;;11.70;;
55314;SDS011;41619;42.816;23.226;2022-11-02T16:18:48;40.30;;;11.32;;
55314;SDS011;41619;42.816;23.226;2022-11-02T16:21:16;43.72;;;11.55;;
55314;SDS011;41619;42.816;23.226;2022-11-02T16:23:50;40.00;;;11.07;;
55314;SDS011;41619;42.816;23.226;2022-11-02T16:26:19;37.05;;;10.75;;
55314;SDS011;41619;42.816;23.226;2022-11-02T16:28:56;52.80;;;15.48;;
55314;SDS011;41619;42.816;23.226;2022-11-02T16:31:27;45.63;;;15.48;;
55314;SDS011;41619;42.816;23.226;2022-11-02T16:33:57;67.97;;;16.17;;
55314;SDS011;41619;42.816;23.226;2022-11-02T16:36:25;60.97;;;20.95;;
55314;SDS011;41619;42.816;23.226;2022-11-02T16:38:56;44.17;;;17.98;;
55314;SDS011;41619;42.816;23.226;2022-11-02T16:41:23;56.80;;;17.80;;
55314;SDS011;41619;42.816;23.226;2022-11-02T16:43:54;70.15;;;15.13;;
55314;SDS011;41619;42.816;23.226;2022-11-02T16:46:27;65.75;;;16.38;;
55314;SDS011;41619;42.816;23.226;2022-11-02T16:49:13;49.47;;;14.43;;
55314;SDS011;41619;42.816;23.226;2022-11-02T16:51:46;76.88;;;24.95;;
55314;SDS011;41619;42.816;23.226;2022-11-02T16:57:03;68.80;;;23.77;;
55314;SDS011;41619;42.816;23.226;2022-11-02T16:59:36;92.68;;;26.67;;
55314;SDS011;41619;42.816;23.226;2022-11-02T17:02:34;138.98;;;44.38;;
55314;SDS011;41619;42.816;23.226;2022-11-02T17:05:00;147.77;;;46.28;;
55314;SDS011;41619;42.816;23.226;2022-11-02T17:07:30;184.20;;;54.15;;
55314;SDS011;41619;42.816;23.226;2022-11-02T17:09:59;173.85;;;52.83;;
55314;SDS011;41619;42.816;23.226;2022-11-02T17:12:44;178.70;;;54.45;;
55314;SDS011;41619;42.816;23.226;2022-11-02T17:15:14;175.88;;;55.03;;
55314;SDS011;41619;42.816;23.226;2022-11-02T17:17:42;176.45;;;58.80;;
55314;SDS011;41619;42.816;23.226;2022-11-02T17:22:58;172.85;;;56.20;;
55314;SDS011;41619;42.816;23.226;2022-11-02T17:25:29;146.90;;;50.92;;
55314;SDS011;41619;42.816;23.226;2022-11-02T17:27:59;131.05;;;46.42;;
55314;SDS011;41619;42.816;23.226;2022-11-02T17:32:57;95.47;;;33.28;;
55314;SDS011;41619;42.816;23.226;2022-11-02T17:35:24;96.38;;;33.30;;
55314;SDS011;41619;42.816;23.226;2022-11-02T17:37:50;104.03;;;34.97;;
55314;SDS011;41619;42.816;23.226;2022-11-02T17:40:17;115.72;;;34.47;;
55314;SDS011;41619;42.816;23.226;2022-11-02T17:42:43;77.75;;;28.77;;
55314;SDS011;41619;42.816;23.226;2022-11-02T17:47:59;45.67;;;17.02;;
55314;SDS011;41619;42.816;23.226;2022-11-02T17:50:26;43.28;;;16.65;;
55314;SDS011;41619;42.816;23.226;2022-11-02T17:52:54;39.00;;;14.02;;
55314;SDS011;41619;42.816;23.226;2022-11-02T17:55:22;40.28;;;10.95;;
55314;SDS011;41619;42.816;23.226;2022-11-02T17:57:51;34.85;;;10.48;;
55314;SDS011;41619;42.816;23.226;2022-11-02T18:00:17;34.00;;;9.55;;
55314;SDS011;41619;42.816;23.226;2022-11-02T18:02:49;34.20;;;11.27;;
55314;SDS011;41619;42.816;23.226;2022-11-02T18:05:21;35.65;;;10.43;;
55314;SDS011;41619;42.816;23.226;2022-11-02T18:07:48;33.90;;;11.18;;
55314;SDS011;41619;42.816;23.226;2022-11-02T18:10:14;34.50;;;11.73;;
55314;SDS011;41619;42.816;23.226;2022-11-02T18:12:40;61.35;;;17.90;;
55314;SDS011;41619;42.816;23.226;2022-11-02T18:15:08;39.42;;;17.05;;
55314;SDS011;41619;42.816;23.226;2022-11-02T18:17:39;33.20;;;13.35;;
55314;SDS011;41619;42.816;23.226;2022-11-02T18:20:04;36.80;;;14.35;;
55314;SDS011;41619;42.816;23.226;2022-11-02T18:22:30;34.80;;;11.68;;
55314;SDS011;41619;42.816;23.226;2022-11-02T18:24:55;39.42;;;12.05;;
55314;SDS011;41619;42.816;23.226;2022-11-02T18:27:21;38.67;;;13.52;;
55314;SDS011;41619;42.816;23.226;2022-11-02T18:29:46;42.95;;;14.10;;